GLD1793 LPSJ-LPLA

Flight info

Callsign GLD1793
Flight time 0h 28m
Altitude 50000
Route DCT INPIR DCT
Aircraft BE58/M-SDFGIRY/S

Departure

Time 2026-05-08 16:27
Airport São Jorge Airport (LPSJ)

Arrival

Time 2026-05-08 16:55
Airport Lajes Airport (LPLA)
Time Latitude Longitude Altitude Speed Heading
2026-05-08 16:17 38.66422 -28.16902 345 ft 0 kts 180°
2026-05-08 16:23 38.66420 -28.16902 351 ft 1 kts 179°
2026-05-08 16:24 38.66411 -28.16902 350 ft 3 kts 187°
2026-05-08 16:24 38.66394 -28.16905 351 ft 0 kts 188°
2026-05-08 16:24 38.66370 -28.16885 359 ft 8 kts 143°
2026-05-08 16:25 38.66313 -28.16879 349 ft 0 kts 185°
2026-05-08 16:25 38.66300 -28.16890 352 ft 6 kts 245°
2026-05-08 16:25 38.66305 -28.16919 351 ft 0 kts 296°
2026-05-08 16:26 38.66387 -28.17120 356 ft 64 kts 296°
2026-05-08 16:26 38.66614 -28.17811 480 ft 89 kts 300°
2026-05-08 16:26 38.66818 -28.18586 738 ft 96 kts 289°
2026-05-08 16:27 38.66656 -28.19508 1100 ft 124 kts 241°
2026-05-08 16:27 38.65970 -28.20376 1254 ft 151 kts 235°
2026-05-08 16:27 38.65161 -28.21305 1491 ft 166 kts 213°
2026-05-08 16:27 38.63994 -28.21447 1709 ft 181 kts 166°
2026-05-08 16:28 38.62901 -28.20628 1923 ft 183 kts 141°
2026-05-08 16:28 38.61863 -28.19655 2141 ft 187 kts 140°
2026-05-08 16:28 38.60783 -28.18690 2351 ft 192 kts 141°
2026-05-08 16:28 38.59685 -28.17692 2561 ft 196 kts 141°
2026-05-08 16:29 38.58566 -28.16677 2769 ft 196 kts 141°
2026-05-08 16:29 38.57456 -28.15669 2976 ft 196 kts 141°
2026-05-08 16:29 38.56403 -28.14522 2994 ft 199 kts 118°
2026-05-08 16:29 38.56035 -28.12935 2992 ft 184 kts 78°
2026-05-08 16:30 38.56400 -28.11446 3006 ft 175 kts 60°
2026-05-08 16:30 38.56720 -28.09907 3008 ft 183 kts 74°
2026-05-08 16:30 38.56802 -28.08265 3010 ft 185 kts 79°
2026-05-08 16:30 38.56849 -28.06612 3001 ft 187 kts 80°
2026-05-08 16:31 38.56908 -28.04948 3000 ft 187 kts 79°
2026-05-08 16:31 38.56972 -28.03303 2999 ft 187 kts 79°
2026-05-08 16:31 38.57035 -28.01644 2995 ft 187 kts 79°
2026-05-08 16:31 38.57098 -27.99979 2999 ft 187 kts 79°
2026-05-08 16:32 38.57161 -27.98316 2998 ft 187 kts 79°
2026-05-08 16:32 38.57224 -27.96651 3000 ft 187 kts 79°
2026-05-08 16:32 38.57286 -27.94992 2995 ft 187 kts 79°
2026-05-08 16:32 38.57348 -27.93347 2994 ft 188 kts 78°
2026-05-08 16:33 38.57410 -27.91676 2994 ft 189 kts 79°
2026-05-08 16:33 38.57472 -27.90013 2987 ft 185 kts 80°
2026-05-08 16:33 38.57532 -27.88380 2990 ft 183 kts 79°
2026-05-08 16:33 38.57593 -27.86741 2997 ft 187 kts 78°
2026-05-08 16:34 38.57656 -27.85055 2996 ft 192 kts 77°
2026-05-08 16:34 38.57719 -27.83337 3000 ft 196 kts 79°
2026-05-08 16:34 38.57784 -27.81587 2994 ft 197 kts 81°
2026-05-08 16:34 38.57843 -27.79843 2984 ft 194 kts 80°
2026-05-08 16:35 38.57902 -27.78155 2984 ft 191 kts 79°
2026-05-08 16:35 38.57966 -27.76434 2991 ft 191 kts 79°
2026-05-08 16:35 38.58026 -27.74754 2991 ft 189 kts 79°
2026-05-08 16:35 38.58085 -27.73104 2990 ft 188 kts 79°
2026-05-08 16:36 38.58144 -27.71437 2984 ft 187 kts 79°
2026-05-08 16:36 38.58204 -27.69777 2984 ft 188 kts 79°
2026-05-08 16:36 38.58263 -27.68110 2984 ft 188 kts 79°
2026-05-08 16:36 38.58321 -27.66437 2986 ft 188 kts 79°
2026-05-08 16:37 38.58378 -27.64777 2982 ft 187 kts 79°
2026-05-08 16:37 38.58436 -27.63124 2980 ft 186 kts 79°
2026-05-08 16:37 38.58494 -27.61475 2978 ft 187 kts 79°
2026-05-08 16:37 38.58552 -27.59808 2978 ft 187 kts 80°
2026-05-08 16:38 38.58609 -27.58142 2970 ft 187 kts 79°
2026-05-08 16:38 38.58665 -27.56484 2970 ft 186 kts 79°
2026-05-08 16:38 38.58721 -27.54831 2973 ft 186 kts 79°
2026-05-08 16:38 38.58779 -27.53174 2975 ft 187 kts 80°
2026-05-08 16:39 38.58836 -27.51497 2978 ft 189 kts 81°
2026-05-08 16:39 38.58892 -27.49818 2975 ft 189 kts 79°
2026-05-08 16:39 38.58946 -27.48147 2977 ft 188 kts 79°
2026-05-08 16:39 38.59002 -27.46491 2973 ft 188 kts 80°
2026-05-08 16:40 38.59057 -27.44828 2972 ft 187 kts 80°
2026-05-08 16:40 38.59113 -27.43167 2969 ft 186 kts 79°
2026-05-08 16:40 38.59167 -27.41517 2969 ft 185 kts 79°
2026-05-08 16:40 38.59221 -27.39870 2968 ft 185 kts 79°
2026-05-08 16:41 38.59274 -27.38247 2968 ft 184 kts 79°
2026-05-08 16:41 38.59328 -27.36605 2970 ft 185 kts 79°
2026-05-08 16:41 38.59382 -27.34955 2968 ft 186 kts 80°
2026-05-08 16:42 38.59488 -27.31633 2965 ft 186 kts 79°
2026-05-08 16:42 38.59540 -27.29998 2964 ft 184 kts 79°
2026-05-08 16:42 38.59592 -27.28365 2963 ft 183 kts 79°
2026-05-08 16:42 38.59645 -27.26722 2966 ft 185 kts 79°
2026-05-08 16:43 38.59598 -27.25081 2966 ft 191 kts 91°
2026-05-08 16:43 38.59321 -27.23382 2968 ft 193 kts 96°
2026-05-08 16:43 38.59042 -27.21707 2963 ft 192 kts 94°
2026-05-08 16:43 38.58791 -27.20053 2962 ft 191 kts 93°
2026-05-08 16:44 38.58542 -27.18384 2960 ft 191 kts 93°
2026-05-08 16:44 38.58293 -27.16714 2967 ft 192 kts 94°
2026-05-08 16:44 38.58041 -27.15035 2966 ft 192 kts 94°
2026-05-08 16:44 38.57788 -27.13363 2967 ft 191 kts 94°
2026-05-08 16:45 38.57536 -27.11692 2967 ft 192 kts 94°
2026-05-08 16:45 38.57283 -27.10018 2960 ft 191 kts 94°
2026-05-08 16:45 38.57031 -27.08350 2960 ft 190 kts 93°
2026-05-08 16:45 38.56784 -27.06715 2960 ft 190 kts 93°
2026-05-08 16:46 38.56529 -27.05024 2962 ft 191 kts 94°
2026-05-08 16:46 38.56279 -27.03383 2962 ft 191 kts 94°
2026-05-08 16:46 38.56026 -27.01714 2962 ft 192 kts 94°
2026-05-08 16:46 38.55771 -27.00032 2962 ft 192 kts 93°
2026-05-08 16:47 38.55517 -26.98365 2955 ft 192 kts 93°
2026-05-08 16:47 38.55261 -26.96680 2954 ft 192 kts 93°
2026-05-08 16:47 38.55228 -26.95034 2950 ft 181 kts 71°
2026-05-08 16:47 38.55677 -26.93584 2950 ft 172 kts 50°
2026-05-08 16:48 38.56461 -26.92503 2952 ft 165 kts 30°
2026-05-08 16:48 38.57451 -26.91861 2950 ft 158 kts 12°
2026-05-08 16:48 38.58527 -26.91688 2948 ft 152 kts 355°
2026-05-08 16:48 38.59534 -26.91958 2945 ft 148 kts 340°
2026-05-08 16:49 38.60422 -26.92622 2940 ft 148 kts 323°
2026-05-08 16:49 38.61197 -26.93481 2938 ft 147 kts 325°
2026-05-08 16:49 38.62005 -26.94291 2939 ft 147 kts 323°
2026-05-08 16:49 38.62795 -26.95127 2939 ft 147 kts 324°
2026-05-08 16:50 38.63591 -26.95955 2940 ft 147 kts 324°
2026-05-08 16:50 38.64377 -26.96772 2940 ft 147 kts 324°
2026-05-08 16:50 38.65173 -26.97601 2925 ft 150 kts 324°
2026-05-08 16:50 38.66026 -26.98484 2729 ft 163 kts 324°
2026-05-08 16:51 38.66930 -26.99420 2494 ft 169 kts 324°
2026-05-08 16:51 38.67844 -27.00381 2235 ft 170 kts 324°
2026-05-08 16:51 38.68765 -27.01339 1986 ft 170 kts 324°
2026-05-08 16:51 38.69622 -27.02233 1750 ft 147 kts 324°
2026-05-08 16:52 38.70341 -27.02989 1551 ft 123 kts 324°
2026-05-08 16:52 38.70922 -27.03594 1391 ft 100 kts 324°
2026-05-08 16:52 38.71444 -27.04135 1258 ft 94 kts 325°
2026-05-08 16:52 38.71940 -27.04655 1114 ft 90 kts 325°
2026-05-08 16:53 38.72890 -27.05646 869 ft 87 kts 326°
2026-05-08 16:53 38.73349 -27.06123 747 ft 83 kts 326°
2026-05-08 16:53 38.73792 -27.06584 628 ft 79 kts 326°
2026-05-08 16:54 38.74200 -27.07011 521 ft 73 kts 325°
2026-05-08 16:54 38.74590 -27.07417 388 ft 74 kts 323°
2026-05-08 16:54 38.74981 -27.07816 309 ft 71 kts 323°
2026-05-08 16:54 38.75358 -27.08220 216 ft 71 kts 321°
2026-05-08 16:55 38.75730 -27.08616 179 ft 68 kts 322°
2026-05-08 16:55 38.76039 -27.08918 175 ft 28 kts 331°
2026-05-08 16:55 38.76138 -27.08925 174 ft 7 kts 47°
2026-05-08 16:55 38.76166 -27.08877 173 ft 7 kts 56°
2026-05-08 16:56 38.76198 -27.08849 172 ft 4 kts 336°
2026-05-08 16:56 38.76204 -27.08856 172 ft 1 kts 318°
2026-05-08 16:56 38.76235 -27.08889 172 ft 10 kts 320°
2026-05-08 16:56 38.76293 -27.08947 172 ft 8 kts 322°
2026-05-08 16:57 38.76327 -27.08963 172 ft 4 kts
2026-05-08 16:57 38.76355 -27.08961 172 ft 5 kts 359°
2026-05-08 16:57 38.76383 -27.08969 172 ft 3 kts 334°
2026-05-08 16:57 38.76403 -27.08984 172 ft 4 kts 329°
2026-05-08 16:58 38.76417 -27.08995 172 ft 0 kts 329°
2026-05-08 16:58 38.76428 -27.09003 172 ft 4 kts 328°
2026-05-08 16:58 38.76433 -27.09027 172 ft 3 kts 226°
2026-05-08 16:58 38.76430 -27.09031 172 ft 1 kts 226°